logo
Rechercher aéroport 
image banner adimage banner adimage banner ad
image banner ad

FADELM - Delmas

Situé à , South Africa

ICAO - , IATA -

Données fournies par Airmate  

Information générale

Coordonnées: S26°6'36" E28°43'4"
Élévation : 5075 feet MSL.
 
Voir autres Aéroports à Mpumalanga

Données opérationnelles

Special qualification required
Heure actuelle UTC:
Heure actuelle locale:
Météo à : FASI - Springs ( 35 km )
METAR: FASI 290800Z AUTO 30004KT //// // ////// 16/05 Q1033
Voir NOTAMs / SUP AIP / TFR affectant cet aéroport [VIEW]
Fréquences de communication: [VIEW]

Pistes:

Identifiant RWYQFULongueur (ft)Largeur (ft)SurfaceLDA (ft)
13360949SAND
31187°360949SAND

Coordonnées de l'aéroport

Adresse: South Africa

Vue satellite de FADELM